sensor_id;sensor_type;location;lat;lon;timestamp;P1;durP1;ratioP1;P2;durP2;ratioP2
65971;SDS011;52726;48.852;9.152;2024-03-22T00:00:06;13.73;;;7.03;;
65971;SDS011;52726;48.852;9.152;2024-03-22T00:02:36;9.75;;;6.43;;
65971;SDS011;52726;48.852;9.152;2024-03-22T00:05:02;14.60;;;6.93;;
65971;SDS011;52726;48.852;9.152;2024-03-22T00:07:28;10.65;;;6.90;;
65971;SDS011;52726;48.852;9.152;2024-03-22T00:09:53;11.57;;;7.15;;
65971;SDS011;52726;48.852;9.152;2024-03-22T00:12:19;11.27;;;6.32;;
65971;SDS011;52726;48.852;9.152;2024-03-22T00:14:44;13.18;;;6.75;;
65971;SDS011;52726;48.852;9.152;2024-03-22T00:17:09;9.95;;;6.05;;
65971;SDS011;52726;48.852;9.152;2024-03-22T00:19:35;17.52;;;7.70;;
65971;SDS011;52726;48.852;9.152;2024-03-22T00:22:00;10.07;;;6.30;;
65971;SDS011;52726;48.852;9.152;2024-03-22T00:24:25;10.60;;;5.90;;
65971;SDS011;52726;48.852;9.152;2024-03-22T00:26:51;13.88;;;6.13;;
65971;SDS011;52726;48.852;9.152;2024-03-22T00:29:16;10.63;;;6.22;;
65971;SDS011;52726;48.852;9.152;2024-03-22T00:31:41;12.32;;;7.43;;
65971;SDS011;52726;48.852;9.152;2024-03-22T00:34:07;11.98;;;6.85;;
65971;SDS011;52726;48.852;9.152;2024-03-22T00:36:32;11.57;;;6.65;;
65971;SDS011;52726;48.852;9.152;2024-03-22T00:38:58;10.75;;;6.05;;
65971;SDS011;52726;48.852;9.152;2024-03-22T00:41:23;11.23;;;6.68;;
65971;SDS011;52726;48.852;9.152;2024-03-22T00:43:48;10.93;;;6.82;;
65971;SDS011;52726;48.852;9.152;2024-03-22T00:46:14;10.52;;;6.43;;
65971;SDS011;52726;48.852;9.152;2024-03-22T00:48:39;16.20;;;7.18;;
65971;SDS011;52726;48.852;9.152;2024-03-22T00:51:04;12.35;;;6.10;;
65971;SDS011;52726;48.852;9.152;2024-03-22T00:53:30;15.55;;;6.05;;
65971;SDS011;52726;48.852;9.152;2024-03-22T00:55:55;11.85;;;6.03;;
65971;SDS011;52726;48.852;9.152;2024-03-22T00:58:21;12.57;;;6.70;;
65971;SDS011;52726;48.852;9.152;2024-03-22T01:00:46;11.15;;;6.22;;
65971;SDS011;52726;48.852;9.152;2024-03-22T01:03:12;10.68;;;6.63;;
65971;SDS011;52726;48.852;9.152;2024-03-22T01:05:37;11.10;;;6.10;;
65971;SDS011;52726;48.852;9.152;2024-03-22T01:08:03;13.15;;;7.15;;
65971;SDS011;52726;48.852;9.152;2024-03-22T01:10:29;11.23;;;6.72;;
65971;SDS011;52726;48.852;9.152;2024-03-22T01:12:54;10.95;;;6.80;;
65971;SDS011;52726;48.852;9.152;2024-03-22T01:15:20;10.23;;;5.75;;
65971;SDS011;52726;48.852;9.152;2024-03-22T01:17:45;11.65;;;6.72;;
65971;SDS011;52726;48.852;9.152;2024-03-22T01:20:11;12.75;;;7.07;;
65971;SDS011;52726;48.852;9.152;2024-03-22T01:22:36;13.02;;;7.63;;
65971;SDS011;52726;48.852;9.152;2024-03-22T01:25:02;11.32;;;6.25;;
65971;SDS011;52726;48.852;9.152;2024-03-22T01:27:28;13.38;;;6.85;;
65971;SDS011;52726;48.852;9.152;2024-03-22T01:29:53;12.25;;;6.82;;
65971;SDS011;52726;48.852;9.152;2024-03-22T01:32:19;11.73;;;6.80;;
65971;SDS011;52726;48.852;9.152;2024-03-22T01:34:44;13.23;;;7.07;;
65971;SDS011;52726;48.852;9.152;2024-03-22T01:37:09;9.75;;;6.80;;
65971;SDS011;52726;48.852;9.152;2024-03-22T01:39:35;17.35;;;7.88;;
65971;SDS011;52726;48.852;9.152;2024-03-22T01:42:00;13.32;;;7.13;;
65971;SDS011;52726;48.852;9.152;2024-03-22T01:44:26;12.77;;;6.43;;
65971;SDS011;52726;48.852;9.152;2024-03-22T01:46:53;12.95;;;6.65;;
65971;SDS011;52726;48.852;9.152;2024-03-22T01:49:18;13.32;;;7.03;;
65971;SDS011;52726;48.852;9.152;2024-03-22T01:51:44;12.27;;;7.25;;
65971;SDS011;52726;48.852;9.152;2024-03-22T01:54:09;9.93;;;6.47;;
65971;SDS011;52726;48.852;9.152;2024-03-22T01:56:38;11.35;;;5.80;;
65971;SDS011;52726;48.852;9.152;2024-03-22T01:59:04;16.98;;;7.00;;
65971;SDS011;52726;48.852;9.152;2024-03-22T02:01:29;11.15;;;6.50;;
65971;SDS011;52726;48.852;9.152;2024-03-22T02:03:55;11.77;;;6.70;;
65971;SDS011;52726;48.852;9.152;2024-03-22T02:06:20;10.60;;;5.82;;
65971;SDS011;52726;48.852;9.152;2024-03-22T02:08:46;13.82;;;6.75;;
65971;SDS011;52726;48.852;9.152;2024-03-22T02:11:11;9.82;;;6.28;;
65971;SDS011;52726;48.852;9.152;2024-03-22T02:13:36;13.15;;;6.32;;
65971;SDS011;52726;48.852;9.152;2024-03-22T02:16:05;9.82;;;6.35;;
65971;SDS011;52726;48.852;9.152;2024-03-22T02:18:30;12.23;;;6.47;;
65971;SDS011;52726;48.852;9.152;2024-03-22T02:20:58;12.00;;;5.88;;
65971;SDS011;52726;48.852;9.152;2024-03-22T02:23:31;13.07;;;7.45;;
65971;SDS011;52726;48.852;9.152;2024-03-22T02:25:57;9.85;;;5.85;;
65971;SDS011;52726;48.852;9.152;2024-03-22T02:28:23;14.40;;;7.43;;
65971;SDS011;52726;48.852;9.152;2024-03-22T02:30:48;10.55;;;6.53;;
65971;SDS011;52726;48.852;9.152;2024-03-22T02:33:14;10.20;;;6.78;;
65971;SDS011;52726;48.852;9.152;2024-03-22T02:35:39;13.60;;;6.85;;
65971;SDS011;52726;48.852;9.152;2024-03-22T02:38:04;10.85;;;5.95;;
65971;SDS011;52726;48.852;9.152;2024-03-22T02:40:29;10.85;;;6.32;;
65971;SDS011;52726;48.852;9.152;2024-03-22T02:42:55;14.45;;;6.10;;
65971;SDS011;52726;48.852;9.152;2024-03-22T02:45:20;13.63;;;7.05;;
65971;SDS011;52726;48.852;9.152;2024-03-22T02:47:46;12.18;;;6.80;;
65971;SDS011;52726;48.852;9.152;2024-03-22T02:50:11;11.15;;;5.80;;
65971;SDS011;52726;48.852;9.152;2024-03-22T02:52:37;9.73;;;6.20;;
65971;SDS011;52726;48.852;9.152;2024-03-22T02:55:03;10.02;;;6.65;;
65971;SDS011;52726;48.852;9.152;2024-03-22T02:57:29;10.60;;;6.00;;
65971;SDS011;52726;48.852;9.152;2024-03-22T02:59:54;14.27;;;7.13;;
65971;SDS011;52726;48.852;9.152;2024-03-22T03:02:19;11.80;;;6.03;;
65971;SDS011;52726;48.852;9.152;2024-03-22T03:04:44;11.07;;;6.57;;
65971;SDS011;52726;48.852;9.152;2024-03-22T03:07:10;16.85;;;7.13;;
65971;SDS011;52726;48.852;9.152;2024-03-22T03:09:35;12.15;;;7.03;;
65971;SDS011;52726;48.852;9.152;2024-03-22T03:12:01;14.32;;;7.93;;
65971;SDS011;52726;48.852;9.152;2024-03-22T03:14:26;13.48;;;7.47;;
65971;SDS011;52726;48.852;9.152;2024-03-22T03:16:51;11.50;;;7.15;;
65971;SDS011;52726;48.852;9.152;2024-03-22T03:19:17;12.13;;;6.82;;
65971;SDS011;52726;48.852;9.152;2024-03-22T03:21:42;14.23;;;8.05;;
65971;SDS011;52726;48.852;9.152;2024-03-22T03:24:07;20.88;;;8.73;;
65971;SDS011;52726;48.852;9.152;2024-03-22T03:26:34;12.45;;;7.10;;
65971;SDS011;52726;48.852;9.152;2024-03-22T03:28:59;12.75;;;7.65;;
65971;SDS011;52726;48.852;9.152;2024-03-22T03:31:25;10.60;;;6.65;;
65971;SDS011;52726;48.852;9.152;2024-03-22T03:33:50;13.35;;;7.10;;
65971;SDS011;52726;48.852;9.152;2024-03-22T03:36:15;10.38;;;5.70;;
65971;SDS011;52726;48.852;9.152;2024-03-22T03:38:41;17.48;;;7.60;;
65971;SDS011;52726;48.852;9.152;2024-03-22T03:41:06;12.82;;;6.70;;
65971;SDS011;52726;48.852;9.152;2024-03-22T03:43:31;9.10;;;5.95;;
65971;SDS011;52726;48.852;9.152;2024-03-22T03:45:57;12.85;;;7.38;;
65971;SDS011;52726;48.852;9.152;2024-03-22T03:48:22;11.10;;;6.80;;
65971;SDS011;52726;48.852;9.152;2024-03-22T03:50:54;11.30;;;6.22;;
65971;SDS011;52726;48.852;9.152;2024-03-22T03:53:20;12.38;;;7.00;;
65971;SDS011;52726;48.852;9.152;2024-03-22T03:55:46;18.65;;;7.35;;
65971;SDS011;52726;48.852;9.152;2024-03-22T03:58:11;10.13;;;6.78;;
65971;SDS011;52726;48.852;9.152;2024-03-22T04:00:37;14.30;;;6.75;;
65971;SDS011;52726;48.852;9.152;2024-03-22T04:03:02;10.85;;;6.32;;
65971;SDS011;52726;48.852;9.152;2024-03-22T04:05:27;17.98;;;6.63;;
65971;SDS011;52726;48.852;9.152;2024-03-22T04:07:53;12.98;;;6.88;;
65971;SDS011;52726;48.852;9.152;2024-03-22T04:10:19;9.63;;;6.55;;
65971;SDS011;52726;48.852;9.152;2024-03-22T04:12:44;15.43;;;7.97;;
65971;SDS011;52726;48.852;9.152;2024-03-22T04:15:10;11.43;;;6.60;;
65971;SDS011;52726;48.852;9.152;2024-03-22T04:17:35;10.98;;;6.80;;
65971;SDS011;52726;48.852;9.152;2024-03-22T04:20:01;9.20;;;6.30;;
65971;SDS011;52726;48.852;9.152;2024-03-22T04:22:27;13.45;;;7.50;;
65971;SDS011;52726;48.852;9.152;2024-03-22T04:24:52;11.70;;;6.57;;
65971;SDS011;52726;48.852;9.152;2024-03-22T04:27:18;14.55;;;7.05;;
65971;SDS011;52726;48.852;9.152;2024-03-22T04:29:46;11.90;;;6.60;;
65971;SDS011;52726;48.852;9.152;2024-03-22T04:32:12;12.43;;;6.68;;
65971;SDS011;52726;48.852;9.152;2024-03-22T04:34:41;17.65;;;7.80;;
65971;SDS011;52726;48.852;9.152;2024-03-22T04:37:07;14.32;;;7.78;;
65971;SDS011;52726;48.852;9.152;2024-03-22T04:39:32;12.27;;;6.78;;
65971;SDS011;52726;48.852;9.152;2024-03-22T04:41:57;12.20;;;7.65;;
65971;SDS011;52726;48.852;9.152;2024-03-22T04:44:23;11.40;;;7.07;;
65971;SDS011;52726;48.852;9.152;2024-03-22T04:46:49;14.63;;;7.65;;
65971;SDS011;52726;48.852;9.152;2024-03-22T04:49:14;12.80;;;7.10;;
65971;SDS011;52726;48.852;9.152;2024-03-22T04:51:40;12.50;;;7.35;;
65971;SDS011;52726;48.852;9.152;2024-03-22T04:54:05;11.90;;;6.85;;
65971;SDS011;52726;48.852;9.152;2024-03-22T04:56:30;12.70;;;7.25;;
65971;SDS011;52726;48.852;9.152;2024-03-22T04:58:56;12.60;;;6.80;;
65971;SDS011;52726;48.852;9.152;2024-03-22T05:01:21;10.85;;;6.57;;
65971;SDS011;52726;48.852;9.152;2024-03-22T05:03:48;12.57;;;6.57;;
65971;SDS011;52726;48.852;9.152;2024-03-22T05:06:14;9.55;;;5.68;;
65971;SDS011;52726;48.852;9.152;2024-03-22T05:08:39;10.98;;;6.85;;
65971;SDS011;52726;48.852;9.152;2024-03-22T05:11:06;13.10;;;6.38;;
65971;SDS011;52726;48.852;9.152;2024-03-22T05:13:32;10.18;;;5.65;;
65971;SDS011;52726;48.852;9.152;2024-03-22T05:15:57;11.13;;;6.43;;
65971;SDS011;52726;48.852;9.152;2024-03-22T05:18:23;12.63;;;6.90;;
65971;SDS011;52726;48.852;9.152;2024-03-22T05:20:48;12.20;;;6.40;;
65971;SDS011;52726;48.852;9.152;2024-03-22T05:23:13;11.95;;;7.22;;
65971;SDS011;52726;48.852;9.152;2024-03-22T05:25:41;15.65;;;6.82;;
65971;SDS011;52726;48.852;9.152;2024-03-22T05:28:06;13.50;;;7.70;;
65971;SDS011;52726;48.852;9.152;2024-03-22T05:30:32;11.13;;;6.53;;
65971;SDS011;52726;48.852;9.152;2024-03-22T05:32:57;12.88;;;6.60;;
65971;SDS011;52726;48.852;9.152;2024-03-22T05:35:23;9.35;;;6.32;;
65971;SDS011;52726;48.852;9.152;2024-03-22T05:37:48;14.45;;;6.22;;
65971;SDS011;52726;48.852;9.152;2024-03-22T05:40:14;11.43;;;5.93;;
65971;SDS011;52726;48.852;9.152;2024-03-22T05:42:41;12.88;;;6.65;;
65971;SDS011;52726;48.852;9.152;2024-03-22T05:45:06;10.68;;;6.45;;
65971;SDS011;52726;48.852;9.152;2024-03-22T05:47:32;10.95;;;5.93;;
65971;SDS011;52726;48.852;9.152;2024-03-22T05:49:58;9.98;;;6.35;;
65971;SDS011;52726;48.852;9.152;2024-03-22T05:52:27;10.35;;;6.18;;
65971;SDS011;52726;48.852;9.152;2024-03-22T05:54:52;12.23;;;5.90;;
65971;SDS011;52726;48.852;9.152;2024-03-22T05:57:17;10.43;;;6.20;;
65971;SDS011;52726;48.852;9.152;2024-03-22T05:59:43;9.88;;;6.43;;
65971;SDS011;52726;48.852;9.152;2024-03-22T06:02:08;12.75;;;5.97;;
65971;SDS011;52726;48.852;9.152;2024-03-22T06:04:33;11.63;;;6.57;;
65971;SDS011;52726;48.852;9.152;2024-03-22T06:06:59;14.15;;;6.65;;
65971;SDS011;52726;48.852;9.152;2024-03-22T06:09:28;9.55;;;5.65;;
65971;SDS011;52726;48.852;9.152;2024-03-22T06:12:02;10.85;;;6.45;;
65971;SDS011;52726;48.852;9.152;2024-03-22T06:14:31;11.90;;;6.32;;
65971;SDS011;52726;48.852;9.152;2024-03-22T06:16:56;9.00;;;5.90;;
65971;SDS011;52726;48.852;9.152;2024-03-22T06:19:22;11.63;;;6.20;;
65971;SDS011;52726;48.852;9.152;2024-03-22T06:21:48;9.73;;;6.00;;
65971;SDS011;52726;48.852;9.152;2024-03-22T06:24:13;12.30;;;5.88;;
65971;SDS011;52726;48.852;9.152;2024-03-22T06:26:39;12.68;;;6.63;;
65971;SDS011;52726;48.852;9.152;2024-03-22T06:29:04;11.85;;;7.03;;
65971;SDS011;52726;48.852;9.152;2024-03-22T06:31:29;15.25;;;7.35;;
65971;SDS011;52726;48.852;9.152;2024-03-22T06:33:55;17.65;;;7.15;;
65971;SDS011;52726;48.852;9.152;2024-03-22T06:36:26;10.65;;;6.60;;
65971;SDS011;52726;48.852;9.152;2024-03-22T06:38:52;10.50;;;6.57;;
65971;SDS011;52726;48.852;9.152;2024-03-22T06:41:17;15.65;;;6.68;;
65971;SDS011;52726;48.852;9.152;2024-03-22T06:43:43;10.98;;;6.40;;
65971;SDS011;52726;48.852;9.152;2024-03-22T06:46:08;11.80;;;6.35;;
65971;SDS011;52726;48.852;9.152;2024-03-22T06:48:33;10.13;;;6.35;;
65971;SDS011;52726;48.852;9.152;2024-03-22T06:50:58;10.55;;;6.47;;
65971;SDS011;52726;48.852;9.152;2024-03-22T06:53:24;8.60;;;5.57;;
65971;SDS011;52726;48.852;9.152;2024-03-22T06:55:50;13.80;;;5.53;;
65971;SDS011;52726;48.852;9.152;2024-03-22T06:58:15;8.07;;;5.85;;
65971;SDS011;52726;48.852;9.152;2024-03-22T07:00:40;7.60;;;5.10;;
65971;SDS011;52726;48.852;9.152;2024-03-22T07:03:06;13.13;;;5.93;;
65971;SDS011;52726;48.852;9.152;2024-03-22T07:05:31;9.50;;;5.40;;
65971;SDS011;52726;48.852;9.152;2024-03-22T07:07:57;10.77;;;5.70;;
65971;SDS011;52726;48.852;9.152;2024-03-22T07:10:23;9.60;;;5.75;;
65971;SDS011;52726;48.852;9.152;2024-03-22T07:12:52;8.88;;;5.25;;
65971;SDS011;52726;48.852;9.152;2024-03-22T07:15:18;12.10;;;5.75;;
65971;SDS011;52726;48.852;9.152;2024-03-22T07:17:43;9.40;;;5.78;;
65971;SDS011;52726;48.852;9.152;2024-03-22T07:20:08;9.50;;;5.35;;
65971;SDS011;52726;48.852;9.152;2024-03-22T07:22:34;11.82;;;5.82;;
65971;SDS011;52726;48.852;9.152;2024-03-22T07:24:59;9.68;;;5.88;;
65971;SDS011;52726;48.852;9.152;2024-03-22T07:27:25;9.00;;;5.45;;
65971;SDS011;52726;48.852;9.152;2024-03-22T07:29:54;11.38;;;5.88;;
65971;SDS011;52726;48.852;9.152;2024-03-22T07:32:19;8.50;;;5.30;;
65971;SDS011;52726;48.852;9.152;2024-03-22T07:34:45;10.30;;;5.45;;
65971;SDS011;52726;48.852;9.152;2024-03-22T07:37:11;11.50;;;5.93;;
65971;SDS011;52726;48.852;9.152;2024-03-22T07:39:36;7.53;;;5.85;;
65971;SDS011;52726;48.852;9.152;2024-03-22T07:42:02;9.70;;;5.97;;
65971;SDS011;52726;48.852;9.152;2024-03-22T07:44:27;10.55;;;5.88;;
65971;SDS011;52726;48.852;9.152;2024-03-22T07:46:53;8.90;;;6.32;;
65971;SDS011;52726;48.852;9.152;2024-03-22T07:49:19;9.18;;;5.72;;
65971;SDS011;52726;48.852;9.152;2024-03-22T07:51:45;12.55;;;6.07;;
65971;SDS011;52726;48.852;9.152;2024-03-22T07:54:10;10.68;;;5.65;;
65971;SDS011;52726;48.852;9.152;2024-03-22T07:56:36;8.25;;;5.57;;
65971;SDS011;52726;48.852;9.152;2024-03-22T07:59:01;12.02;;;5.70;;
65971;SDS011;52726;48.852;9.152;2024-03-22T08:01:27;9.00;;;5.13;;
65971;SDS011;52726;48.852;9.152;2024-03-22T08:03:52;7.65;;;5.38;;
65971;SDS011;52726;48.852;9.152;2024-03-22T08:06:18;7.93;;;5.72;;
65971;SDS011;52726;48.852;9.152;2024-03-22T08:08:43;8.57;;;6.28;;
65971;SDS011;52726;48.852;9.152;2024-03-22T08:11:09;8.52;;;5.45;;
65971;SDS011;52726;48.852;9.152;2024-03-22T08:13:35;10.43;;;5.05;;
65971;SDS011;52726;48.852;9.152;2024-03-22T08:16:00;6.95;;;4.93;;
65971;SDS011;52726;48.852;9.152;2024-03-22T08:18:25;11.80;;;4.55;;
65971;SDS011;52726;48.852;9.152;2024-03-22T08:20:51;9.32;;;4.93;;
65971;SDS011;52726;48.852;9.152;2024-03-22T08:23:16;12.13;;;4.97;;
65971;SDS011;52726;48.852;9.152;2024-03-22T08:25:45;8.40;;;4.88;;
65971;SDS011;52726;48.852;9.152;2024-03-22T08:28:10;11.52;;;4.90;;
65971;SDS011;52726;48.852;9.152;2024-03-22T08:30:37;6.03;;;4.50;;
65971;SDS011;52726;48.852;9.152;2024-03-22T08:33:02;9.13;;;4.68;;
65971;SDS011;52726;48.852;9.152;2024-03-22T08:35:29;6.95;;;4.60;;
65971;SDS011;52726;48.852;9.152;2024-03-22T08:37:54;10.65;;;4.93;;
65971;SDS011;52726;48.852;9.152;2024-03-22T08:40:19;7.05;;;4.97;;
65971;SDS011;52726;48.852;9.152;2024-03-22T08:42:45;5.70;;;4.45;;
65971;SDS011;52726;48.852;9.152;2024-03-22T08:45:10;8.23;;;4.50;;
65971;SDS011;52726;48.852;9.152;2024-03-22T08:47:35;6.10;;;3.85;;
65971;SDS011;52726;48.852;9.152;2024-03-22T08:50:01;6.32;;;3.65;;
65971;SDS011;52726;48.852;9.152;2024-03-22T08:52:26;5.82;;;3.70;;
65971;SDS011;52726;48.852;9.152;2024-03-22T08:54:52;6.03;;;3.50;;
65971;SDS011;52726;48.852;9.152;2024-03-22T08:57:17;6.60;;;3.30;;
65971;SDS011;52726;48.852;9.152;2024-03-22T08:59:43;5.03;;;3.35;;
65971;SDS011;52726;48.852;9.152;2024-03-22T09:02:09;6.63;;;3.50;;
65971;SDS011;52726;48.852;9.152;2024-03-22T09:04:34;9.45;;;4.07;;
65971;SDS011;52726;48.852;9.152;2024-03-22T09:06:59;3.28;;;2.63;;
65971;SDS011;52726;48.852;9.152;2024-03-22T09:09:25;6.65;;;3.38;;
65971;SDS011;52726;48.852;9.152;2024-03-22T09:11:50;7.72;;;3.50;;
65971;SDS011;52726;48.852;9.152;2024-03-22T09:14:15;8.57;;;3.88;;
65971;SDS011;52726;48.852;9.152;2024-03-22T09:16:42;6.53;;;3.80;;
65971;SDS011;52726;48.852;9.152;2024-03-22T09:19:07;5.30;;;3.15;;
65971;SDS011;52726;48.852;9.152;2024-03-22T09:21:33;4.13;;;3.35;;
65971;SDS011;52726;48.852;9.152;2024-03-22T09:23:58;4.93;;;3.10;;
65971;SDS011;52726;48.852;9.152;2024-03-22T09:26:23;4.15;;;3.05;;
65971;SDS011;52726;48.852;9.152;2024-03-22T09:28:48;4.47;;;2.70;;
65971;SDS011;52726;48.852;9.152;2024-03-22T09:31:15;6.95;;;2.80;;
65971;SDS011;52726;48.852;9.152;2024-03-22T09:33:41;4.72;;;2.83;;
65971;SDS011;52726;48.852;9.152;2024-03-22T09:36:08;5.10;;;3.22;;
65971;SDS011;52726;48.852;9.152;2024-03-22T09:38:33;4.35;;;2.95;;
65971;SDS011;52726;48.852;9.152;2024-03-22T09:40:58;5.68;;;3.13;;
65971;SDS011;52726;48.852;9.152;2024-03-22T09:43:23;4.55;;;2.92;;
65971;SDS011;52726;48.852;9.152;2024-03-22T09:45:55;5.50;;;3.20;;
65971;SDS011;52726;48.852;9.152;2024-03-22T09:48:20;4.20;;;2.80;;
65971;SDS011;52726;48.852;9.152;2024-03-22T09:50:48;7.53;;;3.63;;
65971;SDS011;52726;48.852;9.152;2024-03-22T09:53:17;5.43;;;3.28;;
65971;SDS011;52726;48.852;9.152;2024-03-22T09:55:44;9.20;;;3.10;;
65971;SDS011;52726;48.852;9.152;2024-03-22T09:58:10;3.80;;;2.78;;
65971;SDS011;52726;48.852;9.152;2024-03-22T10:00:35;6.65;;;3.40;;
65971;SDS011;52726;48.852;9.152;2024-03-22T10:03:01;5.15;;;3.35;;
65971;SDS011;52726;48.852;9.152;2024-03-22T10:05:28;7.10;;;3.60;;
65971;SDS011;52726;48.852;9.152;2024-03-22T10:07:54;5.03;;;3.38;;
65971;SDS011;52726;48.852;9.152;2024-03-22T10:10:20;7.72;;;3.28;;
65971;SDS011;52726;48.852;9.152;2024-03-22T10:12:45;6.35;;;3.67;;
65971;SDS011;52726;48.852;9.152;2024-03-22T10:15:11;4.10;;;3.15;;
65971;SDS011;52726;48.852;9.152;2024-03-22T10:17:37;5.97;;;3.42;;
65971;SDS011;52726;48.852;9.152;2024-03-22T10:20:04;4.70;;;3.55;;
65971;SDS011;52726;48.852;9.152;2024-03-22T10:22:37;9.00;;;4.20;;
65971;SDS011;52726;48.852;9.152;2024-03-22T10:25:04;4.90;;;3.63;;
65971;SDS011;52726;48.852;9.152;2024-03-22T10:27:31;6.63;;;3.67;;
65971;SDS011;52726;48.852;9.152;2024-03-22T10:29:57;5.57;;;3.63;;
65971;SDS011;52726;48.852;9.152;2024-03-22T10:32:22;6.15;;;3.35;;
65971;SDS011;52726;48.852;9.152;2024-03-22T10:34:49;5.63;;;3.58;;
65971;SDS011;52726;48.852;9.152;2024-03-22T10:37:16;7.43;;;3.60;;
65971;SDS011;52726;48.852;9.152;2024-03-22T10:39:42;4.75;;;3.20;;
65971;SDS011;52726;48.852;9.152;2024-03-22T10:42:07;4.80;;;3.50;;
65971;SDS011;52726;48.852;9.152;2024-03-22T10:44:33;6.32;;;3.60;;
65971;SDS011;52726;48.852;9.152;2024-03-22T10:46:58;7.05;;;3.33;;
65971;SDS011;52726;48.852;9.152;2024-03-22T10:49:26;4.93;;;3.30;;
65971;SDS011;52726;48.852;9.152;2024-03-22T10:51:57;6.63;;;3.60;;
65971;SDS011;52726;48.852;9.152;2024-03-22T10:54:26;7.50;;;3.70;;
65971;SDS011;52726;48.852;9.152;2024-03-22T10:56:55;5.78;;;3.65;;
65971;SDS011;52726;48.852;9.152;2024-03-22T10:59:22;8.23;;;3.78;;
65971;SDS011;52726;48.852;9.152;2024-03-22T11:01:48;10.68;;;4.05;;
65971;SDS011;52726;48.852;9.152;2024-03-22T11:04:17;6.38;;;3.55;;
65971;SDS011;52726;48.852;9.152;2024-03-22T11:06:48;7.95;;;3.95;;
65971;SDS011;52726;48.852;9.152;2024-03-22T11:09:23;5.97;;;3.17;;
65971;SDS011;52726;48.852;9.152;2024-03-22T11:11:54;4.35;;;3.10;;
65971;SDS011;52726;48.852;9.152;2024-03-22T11:14:21;4.32;;;2.78;;
65971;SDS011;52726;48.852;9.152;2024-03-22T11:16:48;5.80;;;3.30;;
65971;SDS011;52726;48.852;9.152;2024-03-22T11:19:13;6.75;;;3.75;;
65971;SDS011;52726;48.852;9.152;2024-03-22T11:21:39;4.00;;;2.80;;
65971;SDS011;52726;48.852;9.152;2024-03-22T11:24:04;4.95;;;2.63;;
65971;SDS011;52726;48.852;9.152;2024-03-22T11:26:30;6.60;;;3.40;;
65971;SDS011;52726;48.852;9.152;2024-03-22T11:28:56;6.43;;;3.38;;
65971;SDS011;52726;48.852;9.152;2024-03-22T11:31:22;7.63;;;3.25;;
65971;SDS011;52726;48.852;9.152;2024-03-22T11:33:52;4.00;;;2.58;;
65971;SDS011;52726;48.852;9.152;2024-03-22T11:36:18;4.05;;;2.95;;
65971;SDS011;52726;48.852;9.152;2024-03-22T11:38:44;6.90;;;3.30;;
65971;SDS011;52726;48.852;9.152;2024-03-22T11:41:09;4.47;;;2.75;;
65971;SDS011;52726;48.852;9.152;2024-03-22T11:44:32;7.32;;;2.85;;
65971;SDS011;52726;48.852;9.152;2024-03-22T11:47:00;3.90;;;2.83;;
65971;SDS011;52726;48.852;9.152;2024-03-22T11:49:25;4.13;;;2.92;;
65971;SDS011;52726;48.852;9.152;2024-03-22T11:51:51;5.40;;;2.80;;
65971;SDS011;52726;48.852;9.152;2024-03-22T11:54:28;4.35;;;2.50;;
65971;SDS011;52726;48.852;9.152;2024-03-22T11:57:03;3.88;;;2.58;;
65971;SDS011;52726;48.852;9.152;2024-03-22T11:59:31;3.83;;;2.33;;
65971;SDS011;52726;48.852;9.152;2024-03-22T12:02:04;3.15;;;2.38;;
65971;SDS011;52726;48.852;9.152;2024-03-22T12:04:35;5.32;;;2.40;;
65971;SDS011;52726;48.852;9.152;2024-03-22T12:07:00;4.95;;;2.45;;
65971;SDS011;52726;48.852;9.152;2024-03-22T12:09:25;4.03;;;2.03;;
65971;SDS011;52726;48.852;9.152;2024-03-22T12:11:51;4.05;;;2.20;;
65971;SDS011;52726;48.852;9.152;2024-03-22T12:14:16;4.25;;;2.20;;
65971;SDS011;52726;48.852;9.152;2024-03-22T12:16:42;2.13;;;1.85;;
65971;SDS011;52726;48.852;9.152;2024-03-22T12:19:17;6.35;;;2.95;;
65971;SDS011;52726;48.852;9.152;2024-03-22T12:21:50;3.47;;;2.00;;
65971;SDS011;52726;48.852;9.152;2024-03-22T12:24:15;3.17;;;2.00;;
65971;SDS011;52726;48.852;9.152;2024-03-22T12:26:44;2.70;;;2.28;;
65971;SDS011;52726;48.852;9.152;2024-03-22T12:29:19;4.90;;;2.05;;
65971;SDS011;52726;48.852;9.152;2024-03-22T12:31:49;3.65;;;1.58;;
65971;SDS011;52726;48.852;9.152;2024-03-22T12:34:15;2.83;;;1.85;;
65971;SDS011;52726;48.852;9.152;2024-03-22T12:36:40;4.43;;;2.28;;
65971;SDS011;52726;48.852;9.152;2024-03-22T12:39:05;2.88;;;2.13;;
65971;SDS011;52726;48.852;9.152;2024-03-22T12:41:34;4.75;;;1.98;;
65971;SDS011;52726;48.852;9.152;2024-03-22T12:44:00;2.95;;;2.00;;
65971;SDS011;52726;48.852;9.152;2024-03-22T12:46:29;3.05;;;2.13;;
65971;SDS011;52726;48.852;9.152;2024-03-22T12:48:54;5.10;;;2.50;;
65971;SDS011;52726;48.852;9.152;2024-03-22T12:51:20;4.45;;;2.13;;
65971;SDS011;52726;48.852;9.152;2024-03-22T12:53:46;2.65;;;1.80;;
65971;SDS011;52726;48.852;9.152;2024-03-22T12:56:11;3.53;;;2.17;;
65971;SDS011;52726;48.852;9.152;2024-03-22T12:58:37;2.40;;;1.90;;
65971;SDS011;52726;48.852;9.152;2024-03-22T13:01:02;2.90;;;2.30;;
65971;SDS011;52726;48.852;9.152;2024-03-22T13:03:30;3.00;;;2.13;;
65971;SDS011;52726;48.852;9.152;2024-03-22T13:05:57;5.30;;;1.95;;
65971;SDS011;52726;48.852;9.152;2024-03-22T13:08:22;6.13;;;2.15;;
65971;SDS011;52726;48.852;9.152;2024-03-22T13:10:47;7.00;;;2.53;;
65971;SDS011;52726;48.852;9.152;2024-03-22T13:13:13;2.17;;;1.90;;
65971;SDS011;52726;48.852;9.152;2024-03-22T13:15:41;3.42;;;2.30;;
65971;SDS011;52726;48.852;9.152;2024-03-22T13:18:07;5.22;;;2.33;;
65971;SDS011;52726;48.852;9.152;2024-03-22T13:20:34;3.05;;;1.92;;
65971;SDS011;52726;48.852;9.152;2024-03-22T13:26:22;3.72;;;2.22;;
65971;SDS011;52726;48.852;9.152;2024-03-22T13:28:47;3.13;;;1.90;;
65971;SDS011;52726;48.852;9.152;2024-03-22T13:31:13;4.38;;;2.33;;
65971;SDS011;52726;48.852;9.152;2024-03-22T13:33:38;4.85;;;2.03;;
65971;SDS011;52726;48.852;9.152;2024-03-22T13:36:03;5.25;;;2.72;;
65971;SDS011;52726;48.852;9.152;2024-03-22T13:38:30;4.57;;;2.53;;
65971;SDS011;52726;48.852;9.152;2024-03-22T13:40:56;3.45;;;2.47;;
65971;SDS011;52726;48.852;9.152;2024-03-22T13:43:22;3.17;;;2.25;;
65971;SDS011;52726;48.852;9.152;2024-03-22T13:45:51;3.72;;;2.10;;
65971;SDS011;52726;48.852;9.152;2024-03-22T13:48:24;3.30;;;1.88;;
65971;SDS011;52726;48.852;9.152;2024-03-22T13:50:53;3.22;;;2.05;;
65971;SDS011;52726;48.852;9.152;2024-03-22T13:53:20;5.03;;;2.30;;
65971;SDS011;52726;48.852;9.152;2024-03-22T13:55:47;5.88;;;2.72;;
65971;SDS011;52726;48.852;9.152;2024-03-22T13:58:13;4.63;;;2.28;;
65971;SDS011;52726;48.852;9.152;2024-03-22T14:00:38;2.85;;;1.77;;
65971;SDS011;52726;48.852;9.152;2024-03-22T14:03:04;2.50;;;1.80;;
65971;SDS011;52726;48.852;9.152;2024-03-22T14:05:29;4.38;;;2.40;;
65971;SDS011;52726;48.852;9.152;2024-03-22T14:07:56;4.60;;;2.00;;
65971;SDS011;52726;48.852;9.152;2024-03-22T14:10:21;3.33;;;1.58;;
65971;SDS011;52726;48.852;9.152;2024-03-22T14:12:47;1.95;;;1.02;;
65971;SDS011;52726;48.852;9.152;2024-03-22T14:15:14;1.90;;;1.27;;
65971;SDS011;52726;48.852;9.152;2024-03-22T14:17:39;1.70;;;1.55;;
65971;SDS011;52726;48.852;9.152;2024-03-22T14:20:05;3.63;;;1.70;;
65971;SDS011;52726;48.852;9.152;2024-03-22T14:22:36;2.58;;;1.30;;
65971;SDS011;52726;48.852;9.152;2024-03-22T14:25:05;1.98;;;1.10;;
65971;SDS011;52726;48.852;9.152;2024-03-22T14:27:31;1.92;;;1.30;;
65971;SDS011;52726;48.852;9.152;2024-03-22T14:29:57;1.30;;;1.17;;
65971;SDS011;52726;48.852;9.152;2024-03-22T14:32:23;1.95;;;1.38;;
65971;SDS011;52726;48.852;9.152;2024-03-22T14:34:48;1.20;;;1.10;;
65971;SDS011;52726;48.852;9.152;2024-03-22T14:37:13;4.03;;;1.80;;